sensor_id;sensor_type;location;lat;lon;timestamp;P1;durP1;ratioP1;P2;durP2;ratioP2
13408;SDS011;6775;49.574;11.170;2023-05-10T00:01:02;3.30;;;3.00;;
13408;SDS011;6775;49.574;11.170;2023-05-10T00:03:30;3.20;;;2.90;;
13408;SDS011;6775;49.574;11.170;2023-05-10T00:05:58;3.47;;;2.90;;
13408;SDS011;6775;49.574;11.170;2023-05-10T00:08:26;4.07;;;2.90;;
13408;SDS011;6775;49.574;11.170;2023-05-10T00:10:53;3.13;;;2.83;;
13408;SDS011;6775;49.574;11.170;2023-05-10T00:13:21;3.73;;;2.93;;
13408;SDS011;6775;49.574;11.170;2023-05-10T00:15:49;2.93;;;2.63;;
13408;SDS011;6775;49.574;11.170;2023-05-10T00:18:18;3.13;;;2.77;;
13408;SDS011;6775;49.574;11.170;2023-05-10T00:20:46;3.50;;;2.57;;
13408;SDS011;6775;49.574;11.170;2023-05-10T00:23:14;3.47;;;2.90;;
13408;SDS011;6775;49.574;11.170;2023-05-10T00:25:42;3.43;;;3.13;;
13408;SDS011;6775;49.574;11.170;2023-05-10T00:28:10;4.40;;;2.87;;
13408;SDS011;6775;49.574;11.170;2023-05-10T00:30:38;4.63;;;3.33;;
13408;SDS011;6775;49.574;11.170;2023-05-10T00:33:06;4.27;;;3.20;;
13408;SDS011;6775;49.574;11.170;2023-05-10T00:35:35;3.30;;;2.90;;
13408;SDS011;6775;49.574;11.170;2023-05-10T00:38:03;3.60;;;2.90;;
13408;SDS011;6775;49.574;11.170;2023-05-10T00:40:31;3.17;;;2.87;;
13408;SDS011;6775;49.574;11.170;2023-05-10T00:42:59;3.00;;;2.70;;
13408;SDS011;6775;49.574;11.170;2023-05-10T00:45:27;2.80;;;2.60;;
13408;SDS011;6775;49.574;11.170;2023-05-10T00:47:55;4.33;;;3.70;;
13408;SDS011;6775;49.574;11.170;2023-05-10T00:50:24;4.40;;;3.50;;
13408;SDS011;6775;49.574;11.170;2023-05-10T00:52:53;6.27;;;3.63;;
13408;SDS011;6775;49.574;11.170;2023-05-10T00:55:21;4.60;;;4.20;;
13408;SDS011;6775;49.574;11.170;2023-05-10T00:57:49;5.07;;;3.73;;
13408;SDS011;6775;49.574;11.170;2023-05-10T01:00:17;3.60;;;3.20;;
13408;SDS011;6775;49.574;11.170;2023-05-10T01:02:45;4.67;;;3.20;;
13408;SDS011;6775;49.574;11.170;2023-05-10T01:05:14;4.37;;;3.97;;
13408;SDS011;6775;49.574;11.170;2023-05-10T01:07:42;4.23;;;3.87;;
13408;SDS011;6775;49.574;11.170;2023-05-10T01:10:11;4.73;;;4.10;;
13408;SDS011;6775;49.574;11.170;2023-05-10T01:12:40;4.07;;;3.63;;
13408;SDS011;6775;49.574;11.170;2023-05-10T01:15:10;4.07;;;3.67;;
13408;SDS011;6775;49.574;11.170;2023-05-10T01:17:40;5.00;;;4.20;;
13408;SDS011;6775;49.574;11.170;2023-05-10T01:20:11;3.90;;;3.50;;
13408;SDS011;6775;49.574;11.170;2023-05-10T01:22:47;4.13;;;3.73;;
13408;SDS011;6775;49.574;11.170;2023-05-10T01:25:34;4.10;;;3.70;;
13408;SDS011;6775;49.574;11.170;2023-05-10T01:28:39;3.53;;;3.23;;
13408;SDS011;6775;49.574;11.170;2023-05-10T01:31:37;4.10;;;3.70;;
13408;SDS011;6775;49.574;11.170;2023-05-10T01:34:23;3.70;;;3.40;;
13408;SDS011;6775;49.574;11.170;2023-05-10T01:36:58;4.10;;;3.70;;
13408;SDS011;6775;49.574;11.170;2023-05-10T01:39:32;4.40;;;3.63;;
13408;SDS011;6775;49.574;11.170;2023-05-10T01:42:08;4.43;;;3.90;;
13408;SDS011;6775;49.574;11.170;2023-05-10T01:44:39;5.67;;;4.57;;
13408;SDS011;6775;49.574;11.170;2023-05-10T01:47:12;5.30;;;4.80;;
13408;SDS011;6775;49.574;11.170;2023-05-10T01:49:44;4.47;;;4.07;;
13408;SDS011;6775;49.574;11.170;2023-05-10T01:52:16;5.13;;;4.50;;
13408;SDS011;6775;49.574;11.170;2023-05-10T01:54:49;6.17;;;4.23;;
13408;SDS011;6775;49.574;11.170;2023-05-10T01:57:21;5.83;;;4.97;;
13408;SDS011;6775;49.574;11.170;2023-05-10T01:59:51;5.17;;;4.67;;
13408;SDS011;6775;49.574;11.170;2023-05-10T02:02:21;7.93;;;5.53;;
13408;SDS011;6775;49.574;11.170;2023-05-10T02:04:51;5.90;;;5.03;;
13408;SDS011;6775;49.574;11.170;2023-05-10T02:07:21;7.00;;;5.97;;
13408;SDS011;6775;49.574;11.170;2023-05-10T02:09:50;5.33;;;4.83;;
13408;SDS011;6775;49.574;11.170;2023-05-10T02:12:18;6.50;;;5.70;;
13408;SDS011;6775;49.574;11.170;2023-05-10T02:14:47;7.13;;;5.80;;
13408;SDS011;6775;49.574;11.170;2023-05-10T02:17:16;9.57;;;5.73;;
13408;SDS011;6775;49.574;11.170;2023-05-10T02:19:47;5.97;;;5.30;;
13408;SDS011;6775;49.574;11.170;2023-05-10T02:22:15;8.60;;;6.20;;
13408;SDS011;6775;49.574;11.170;2023-05-10T02:24:44;7.50;;;5.60;;
13408;SDS011;6775;49.574;11.170;2023-05-10T02:27:14;6.37;;;5.00;;
13408;SDS011;6775;49.574;11.170;2023-05-10T02:29:43;6.97;;;5.90;;
13408;SDS011;6775;49.574;11.170;2023-05-10T02:32:12;6.30;;;5.63;;
13408;SDS011;6775;49.574;11.170;2023-05-10T02:34:42;6.80;;;6.00;;
13408;SDS011;6775;49.574;11.170;2023-05-10T02:37:13;7.67;;;6.03;;
13408;SDS011;6775;49.574;11.170;2023-05-10T02:39:41;7.17;;;5.97;;
13408;SDS011;6775;49.574;11.170;2023-05-10T02:42:11;5.83;;;5.23;;
13408;SDS011;6775;49.574;11.170;2023-05-10T02:44:45;6.10;;;5.20;;
13408;SDS011;6775;49.574;11.170;2023-05-10T02:47:15;7.43;;;6.33;;
13408;SDS011;6775;49.574;11.170;2023-05-10T02:49:44;5.87;;;5.27;;
13408;SDS011;6775;49.574;11.170;2023-05-10T02:52:13;6.83;;;6.00;;
13408;SDS011;6775;49.574;11.170;2023-05-10T02:54:44;6.83;;;6.10;;
13408;SDS011;6775;49.574;11.170;2023-05-10T02:57:15;7.03;;;5.50;;
13408;SDS011;6775;49.574;11.170;2023-05-10T02:59:45;6.57;;;5.73;;
13408;SDS011;6775;49.574;11.170;2023-05-10T03:02:13;6.93;;;6.20;;
13408;SDS011;6775;49.574;11.170;2023-05-10T03:04:40;6.50;;;5.20;;
13408;SDS011;6775;49.574;11.170;2023-05-10T03:07:08;5.67;;;5.13;;
13408;SDS011;6775;49.574;11.170;2023-05-10T03:09:38;5.43;;;4.70;;
13408;SDS011;6775;49.574;11.170;2023-05-10T03:12:07;4.97;;;4.40;;
13408;SDS011;6775;49.574;11.170;2023-05-10T03:14:45;3.33;;;3.03;;
13408;SDS011;6775;49.574;11.170;2023-05-10T03:17:20;3.73;;;2.80;;
13408;SDS011;6775;49.574;11.170;2023-05-10T03:19:53;2.97;;;2.67;;
13408;SDS011;6775;49.574;11.170;2023-05-10T03:22:24;3.60;;;2.57;;
13408;SDS011;6775;49.574;11.170;2023-05-10T03:24:56;2.90;;;2.70;;
13408;SDS011;6775;49.574;11.170;2023-05-10T03:27:25;2.50;;;2.30;;
13408;SDS011;6775;49.574;11.170;2023-05-10T03:29:54;2.83;;;2.53;;
13408;SDS011;6775;49.574;11.170;2023-05-10T03:32:24;2.43;;;2.23;;
13408;SDS011;6775;49.574;11.170;2023-05-10T03:34:53;2.40;;;2.20;;
13408;SDS011;6775;49.574;11.170;2023-05-10T03:37:20;2.73;;;2.00;;
13408;SDS011;6775;49.574;11.170;2023-05-10T03:39:48;2.40;;;2.00;;
13408;SDS011;6775;49.574;11.170;2023-05-10T03:42:17;3.53;;;2.73;;
13408;SDS011;6775;49.574;11.170;2023-05-10T03:44:45;2.80;;;2.40;;
13408;SDS011;6775;49.574;11.170;2023-05-10T03:47:15;2.57;;;2.10;;
13408;SDS011;6775;49.574;11.170;2023-05-10T03:49:43;3.83;;;2.20;;
13408;SDS011;6775;49.574;11.170;2023-05-10T03:52:10;3.10;;;2.67;;
13408;SDS011;6775;49.574;11.170;2023-05-10T03:54:39;2.60;;;2.40;;
13408;SDS011;6775;49.574;11.170;2023-05-10T03:57:06;3.40;;;2.97;;
13408;SDS011;6775;49.574;11.170;2023-05-10T03:59:37;3.03;;;2.70;;
13408;SDS011;6775;49.574;11.170;2023-05-10T04:02:05;2.63;;;2.37;;
13408;SDS011;6775;49.574;11.170;2023-05-10T04:04:33;2.93;;;2.67;;
13408;SDS011;6775;49.574;11.170;2023-05-10T04:07:00;3.50;;;3.20;;
13408;SDS011;6775;49.574;11.170;2023-05-10T04:09:28;3.60;;;2.27;;
13408;SDS011;6775;49.574;11.170;2023-05-10T04:11:56;2.27;;;2.07;;
13408;SDS011;6775;49.574;11.170;2023-05-10T04:14:25;1.80;;;1.70;;
13408;SDS011;6775;49.574;11.170;2023-05-10T04:16:55;1.70;;;1.57;;
13408;SDS011;6775;49.574;11.170;2023-05-10T04:19:22;1.63;;;1.50;;
13408;SDS011;6775;49.574;11.170;2023-05-10T04:21:50;1.20;;;1.10;;
13408;SDS011;6775;49.574;11.170;2023-05-10T04:24:18;1.37;;;1.10;;
13408;SDS011;6775;49.574;11.170;2023-05-10T04:26:46;0.87;;;0.87;;
13408;SDS011;6775;49.574;11.170;2023-05-10T04:29:14;1.03;;;0.93;;
13408;SDS011;6775;49.574;11.170;2023-05-10T04:31:41;0.80;;;0.80;;
13408;SDS011;6775;49.574;11.170;2023-05-10T04:34:10;1.40;;;0.90;;
13408;SDS011;6775;49.574;11.170;2023-05-10T04:36:38;0.90;;;0.90;;
13408;SDS011;6775;49.574;11.170;2023-05-10T04:39:06;0.60;;;0.60;;
13408;SDS011;6775;49.574;11.170;2023-05-10T04:41:35;0.70;;;0.70;;
13408;SDS011;6775;49.574;11.170;2023-05-10T04:44:04;0.70;;;0.70;;
13408;SDS011;6775;49.574;11.170;2023-05-10T04:46:32;0.80;;;0.70;;
13408;SDS011;6775;49.574;11.170;2023-05-10T04:49:00;0.50;;;0.50;;
13408;SDS011;6775;49.574;11.170;2023-05-10T04:51:29;0.60;;;0.60;;
13408;SDS011;6775;49.574;11.170;2023-05-10T04:53:57;1.33;;;0.50;;
13408;SDS011;6775;49.574;11.170;2023-05-10T04:56:31;0.70;;;0.70;;
13408;SDS011;6775;49.574;11.170;2023-05-10T04:58:59;0.50;;;0.50;;
13408;SDS011;6775;49.574;11.170;2023-05-10T05:01:27;0.50;;;0.50;;
13408;SDS011;6775;49.574;11.170;2023-05-10T05:03:55;0.57;;;0.57;;
13408;SDS011;6775;49.574;11.170;2023-05-10T05:06:23;0.50;;;0.50;;
13408;SDS011;6775;49.574;11.170;2023-05-10T05:08:54;0.50;;;0.50;;
13408;SDS011;6775;49.574;11.170;2023-05-10T05:11:22;0.60;;;0.60;;
13408;SDS011;6775;49.574;11.170;2023-05-10T05:13:50;1.10;;;0.60;;
13408;SDS011;6775;49.574;11.170;2023-05-10T05:16:17;0.70;;;0.60;;
13408;SDS011;6775;49.574;11.170;2023-05-10T05:18:45;0.40;;;0.40;;
13408;SDS011;6775;49.574;11.170;2023-05-10T05:21:13;0.40;;;0.40;;
13408;SDS011;6775;49.574;11.170;2023-05-10T05:23:42;0.60;;;0.60;;
13408;SDS011;6775;49.574;11.170;2023-05-10T05:26:11;0.60;;;0.60;;
13408;SDS011;6775;49.574;11.170;2023-05-10T05:28:39;0.70;;;0.70;;
13408;SDS011;6775;49.574;11.170;2023-05-10T05:31:07;0.60;;;0.50;;
13408;SDS011;6775;49.574;11.170;2023-05-10T05:33:35;0.50;;;0.40;;
13408;SDS011;6775;49.574;11.170;2023-05-10T05:36:04;0.53;;;0.53;;
13408;SDS011;6775;49.574;11.170;2023-05-10T05:38:32;0.50;;;0.40;;
13408;SDS011;6775;49.574;11.170;2023-05-10T05:41:00;0.90;;;0.50;;
13408;SDS011;6775;49.574;11.170;2023-05-10T05:43:30;0.70;;;0.67;;
13408;SDS011;6775;49.574;11.170;2023-05-10T05:45:57;0.60;;;0.40;;
13408;SDS011;6775;49.574;11.170;2023-05-10T05:48:25;0.60;;;0.60;;
13408;SDS011;6775;49.574;11.170;2023-05-10T05:50:54;0.40;;;0.40;;
13408;SDS011;6775;49.574;11.170;2023-05-10T05:53:22;0.40;;;0.40;;
13408;SDS011;6775;49.574;11.170;2023-05-10T05:55:51;0.40;;;0.40;;
13408;SDS011;6775;49.574;11.170;2023-05-10T05:58:20;0.50;;;0.50;;
13408;SDS011;6775;49.574;11.170;2023-05-10T06:00:49;0.83;;;0.60;;
13408;SDS011;6775;49.574;11.170;2023-05-10T06:03:18;0.40;;;0.30;;
13408;SDS011;6775;49.574;11.170;2023-05-10T06:05:46;0.60;;;0.60;;
13408;SDS011;6775;49.574;11.170;2023-05-10T06:08:14;0.37;;;0.37;;
13408;SDS011;6775;49.574;11.170;2023-05-10T06:10:42;0.30;;;0.30;;
13408;SDS011;6775;49.574;11.170;2023-05-10T06:13:10;0.40;;;0.40;;
13408;SDS011;6775;49.574;11.170;2023-05-10T06:15:38;0.40;;;0.40;;
13408;SDS011;6775;49.574;11.170;2023-05-10T06:18:07;0.50;;;0.50;;
13408;SDS011;6775;49.574;11.170;2023-05-10T06:20:35;0.30;;;0.30;;
13408;SDS011;6775;49.574;11.170;2023-05-10T06:23:03;0.50;;;0.50;;
13408;SDS011;6775;49.574;11.170;2023-05-10T06:25:31;0.40;;;0.40;;
13408;SDS011;6775;49.574;11.170;2023-05-10T06:27:58;0.70;;;0.70;;
13408;SDS011;6775;49.574;11.170;2023-05-10T06:30:26;0.60;;;0.60;;
13408;SDS011;6775;49.574;11.170;2023-05-10T06:32:55;0.77;;;0.60;;
13408;SDS011;6775;49.574;11.170;2023-05-10T06:35:24;0.40;;;0.40;;
13408;SDS011;6775;49.574;11.170;2023-05-10T06:37:53;0.40;;;0.40;;
13408;SDS011;6775;49.574;11.170;2023-05-10T06:40:20;0.53;;;0.40;;
13408;SDS011;6775;49.574;11.170;2023-05-10T06:42:48;0.60;;;0.60;;
13408;SDS011;6775;49.574;11.170;2023-05-10T06:45:16;0.50;;;0.50;;
13408;SDS011;6775;49.574;11.170;2023-05-10T06:47:44;0.93;;;0.60;;
13408;SDS011;6775;49.574;11.170;2023-05-10T06:50:12;1.13;;;0.70;;
13408;SDS011;6775;49.574;11.170;2023-05-10T06:52:41;0.40;;;0.40;;
13408;SDS011;6775;49.574;11.170;2023-05-10T06:55:09;0.40;;;0.40;;
13408;SDS011;6775;49.574;11.170;2023-05-10T06:57:37;0.43;;;0.43;;
13408;SDS011;6775;49.574;11.170;2023-05-10T07:00:06;0.90;;;0.80;;
13408;SDS011;6775;49.574;11.170;2023-05-10T07:02:35;0.60;;;0.60;;
13408;SDS011;6775;49.574;11.170;2023-05-10T07:05:04;0.63;;;0.63;;
13408;SDS011;6775;49.574;11.170;2023-05-10T07:07:32;0.50;;;0.50;;
13408;SDS011;6775;49.574;11.170;2023-05-10T07:10:01;0.40;;;0.40;;
13408;SDS011;6775;49.574;11.170;2023-05-10T07:12:29;0.50;;;0.50;;
13408;SDS011;6775;49.574;11.170;2023-05-10T07:14:57;0.80;;;0.80;;
13408;SDS011;6775;49.574;11.170;2023-05-10T07:17:25;0.50;;;0.50;;
13408;SDS011;6775;49.574;11.170;2023-05-10T07:19:53;0.50;;;0.50;;
13408;SDS011;6775;49.574;11.170;2023-05-10T07:22:21;0.60;;;0.60;;
13408;SDS011;6775;49.574;11.170;2023-05-10T07:24:48;0.50;;;0.50;;
13408;SDS011;6775;49.574;11.170;2023-05-10T07:27:17;1.37;;;0.63;;
13408;SDS011;6775;49.574;11.170;2023-05-10T07:29:45;0.50;;;0.50;;
13408;SDS011;6775;49.574;11.170;2023-05-10T07:32:13;2.20;;;1.97;;
13408;SDS011;6775;49.574;11.170;2023-05-10T07:34:41;1.70;;;1.60;;
13408;SDS011;6775;49.574;11.170;2023-05-10T07:37:09;1.50;;;1.40;;
13408;SDS011;6775;49.574;11.170;2023-05-10T07:39:36;1.33;;;1.00;;
13408;SDS011;6775;49.574;11.170;2023-05-10T07:42:04;0.70;;;0.70;;
13408;SDS011;6775;49.574;11.170;2023-05-10T07:44:34;0.90;;;0.70;;
13408;SDS011;6775;49.574;11.170;2023-05-10T07:47:01;1.53;;;0.60;;
13408;SDS011;6775;49.574;11.170;2023-05-10T07:49:29;0.60;;;0.60;;
13408;SDS011;6775;49.574;11.170;2023-05-10T07:51:57;0.50;;;0.50;;
13408;SDS011;6775;49.574;11.170;2023-05-10T07:54:25;0.50;;;0.50;;
13408;SDS011;6775;49.574;11.170;2023-05-10T07:56:53;0.40;;;0.40;;
13408;SDS011;6775;49.574;11.170;2023-05-10T07:59:20;0.50;;;0.50;;
13408;SDS011;6775;49.574;11.170;2023-05-10T08:01:50;0.77;;;0.40;;
13408;SDS011;6775;49.574;11.170;2023-05-10T08:04:17;0.40;;;0.40;;
13408;SDS011;6775;49.574;11.170;2023-05-10T08:06:45;0.40;;;0.40;;
13408;SDS011;6775;49.574;11.170;2023-05-10T08:09:13;0.50;;;0.40;;
13408;SDS011;6775;49.574;11.170;2023-05-10T08:11:41;0.43;;;0.30;;
13408;SDS011;6775;49.574;11.170;2023-05-10T08:14:08;0.40;;;0.40;;
13408;SDS011;6775;49.574;11.170;2023-05-10T08:16:36;0.50;;;0.50;;
13408;SDS011;6775;49.574;11.170;2023-05-10T08:19:05;0.50;;;0.50;;
13408;SDS011;6775;49.574;11.170;2023-05-10T08:21:33;0.50;;;0.50;;
13408;SDS011;6775;49.574;11.170;2023-05-10T08:24:01;0.40;;;0.40;;
13408;SDS011;6775;49.574;11.170;2023-05-10T08:26:30;0.40;;;0.40;;
13408;SDS011;6775;49.574;11.170;2023-05-10T08:28:59;0.30;;;0.30;;
13408;SDS011;6775;49.574;11.170;2023-05-10T08:31:27;0.43;;;0.40;;
13408;SDS011;6775;49.574;11.170;2023-05-10T08:33:55;0.30;;;0.30;;
13408;SDS011;6775;49.574;11.170;2023-05-10T08:36:24;0.37;;;0.37;;
13408;SDS011;6775;49.574;11.170;2023-05-10T08:38:52;2.80;;;1.10;;
13408;SDS011;6775;49.574;11.170;2023-05-10T08:41:21;1.07;;;0.93;;
13408;SDS011;6775;49.574;11.170;2023-05-10T08:43:52;0.70;;;0.70;;
13408;SDS011;6775;49.574;11.170;2023-05-10T08:46:21;0.60;;;0.60;;
13408;SDS011;6775;49.574;11.170;2023-05-10T08:48:50;0.70;;;0.57;;
13408;SDS011;6775;49.574;11.170;2023-05-10T08:51:19;1.23;;;0.60;;
13408;SDS011;6775;49.574;11.170;2023-05-10T08:53:51;0.80;;;0.40;;
13408;SDS011;6775;49.574;11.170;2023-05-10T08:56:19;0.40;;;0.40;;
13408;SDS011;6775;49.574;11.170;2023-05-10T08:58:47;0.60;;;0.60;;
13408;SDS011;6775;49.574;11.170;2023-05-10T09:01:16;0.63;;;0.60;;
13408;SDS011;6775;49.574;11.170;2023-05-10T09:03:45;0.73;;;0.60;;
13408;SDS011;6775;49.574;11.170;2023-05-10T09:06:14;0.50;;;0.50;;
13408;SDS011;6775;49.574;11.170;2023-05-10T09:08:42;0.70;;;0.60;;
13408;SDS011;6775;49.574;11.170;2023-05-10T09:11:11;0.57;;;0.57;;
13408;SDS011;6775;49.574;11.170;2023-05-10T09:13:40;0.60;;;0.60;;
13408;SDS011;6775;49.574;11.170;2023-05-10T09:16:09;0.50;;;0.50;;
13408;SDS011;6775;49.574;11.170;2023-05-10T09:18:47;0.60;;;0.60;;
13408;SDS011;6775;49.574;11.170;2023-05-10T09:21:16;0.60;;;0.60;;
13408;SDS011;6775;49.574;11.170;2023-05-10T09:23:44;0.53;;;0.53;;
13408;SDS011;6775;49.574;11.170;2023-05-10T09:26:15;0.70;;;0.70;;
13408;SDS011;6775;49.574;11.170;2023-05-10T09:28:50;0.60;;;0.60;;
13408;SDS011;6775;49.574;11.170;2023-05-10T09:31:19;1.10;;;0.90;;
13408;SDS011;6775;49.574;11.170;2023-05-10T09:33:47;0.97;;;0.90;;
13408;SDS011;6775;49.574;11.170;2023-05-10T09:36:16;1.40;;;0.77;;
13408;SDS011;6775;49.574;11.170;2023-05-10T09:38:44;0.60;;;0.60;;
13408;SDS011;6775;49.574;11.170;2023-05-10T09:41:18;0.53;;;0.53;;
13408;SDS011;6775;49.574;11.170;2023-05-10T09:43:47;1.13;;;0.70;;
13408;SDS011;6775;49.574;11.170;2023-05-10T09:46:16;0.70;;;0.63;;
13408;SDS011;6775;49.574;11.170;2023-05-10T09:48:45;0.60;;;0.60;;
13408;SDS011;6775;49.574;11.170;2023-05-10T09:51:23;0.47;;;0.47;;
13408;SDS011;6775;49.574;11.170;2023-05-10T09:54:08;0.50;;;0.50;;
13408;SDS011;6775;49.574;11.170;2023-05-10T09:56:38;0.60;;;0.60;;
13408;SDS011;6775;49.574;11.170;2023-05-10T09:59:08;0.40;;;0.40;;
13408;SDS011;6775;49.574;11.170;2023-05-10T10:01:37;0.70;;;0.60;;
13408;SDS011;6775;49.574;11.170;2023-05-10T10:04:07;0.47;;;0.47;;
13408;SDS011;6775;49.574;11.170;2023-05-10T10:06:35;0.70;;;0.70;;
13408;SDS011;6775;49.574;11.170;2023-05-10T10:09:04;0.60;;;0.60;;
13408;SDS011;6775;49.574;11.170;2023-05-10T10:11:33;0.70;;;0.70;;
13408;SDS011;6775;49.574;11.170;2023-05-10T10:14:04;0.70;;;0.70;;
13408;SDS011;6775;49.574;11.170;2023-05-10T10:16:32;1.07;;;0.90;;
13408;SDS011;6775;49.574;11.170;2023-05-10T10:19:00;0.70;;;0.70;;
13408;SDS011;6775;49.574;11.170;2023-05-10T10:21:28;0.63;;;0.63;;
13408;SDS011;6775;49.574;11.170;2023-05-10T10:23:56;0.70;;;0.70;;
13408;SDS011;6775;49.574;11.170;2023-05-10T10:26:24;1.10;;;1.00;;
13408;SDS011;6775;49.574;11.170;2023-05-10T10:28:56;1.23;;;1.10;;
13408;SDS011;6775;49.574;11.170;2023-05-10T10:31:36;2.10;;;1.90;;
13408;SDS011;6775;49.574;11.170;2023-05-10T10:34:08;1.33;;;1.23;;
13408;SDS011;6775;49.574;11.170;2023-05-10T10:36:40;1.50;;;1.30;;
13408;SDS011;6775;49.574;11.170;2023-05-10T10:39:09;1.27;;;1.10;;
13408;SDS011;6775;49.574;11.170;2023-05-10T10:41:38;0.80;;;0.80;;
13408;SDS011;6775;49.574;11.170;2023-05-10T10:47:10;0.87;;;0.73;;
13408;SDS011;6775;49.574;11.170;2023-05-10T10:50:02;0.80;;;0.80;;
13408;SDS011;6775;49.574;11.170;2023-05-10T10:52:32;0.90;;;0.90;;
13408;SDS011;6775;49.574;11.170;2023-05-10T10:55:02;1.13;;;0.60;;
13408;SDS011;6775;49.574;11.170;2023-05-10T10:57:32;1.97;;;0.93;;
13408;SDS011;6775;49.574;11.170;2023-05-10T11:00:22;1.13;;;0.80;;
13408;SDS011;6775;49.574;11.170;2023-05-10T11:02:54;0.90;;;0.57;;
13408;SDS011;6775;49.574;11.170;2023-05-10T11:05:25;0.50;;;0.50;;
13408;SDS011;6775;49.574;11.170;2023-05-10T11:08:07;0.53;;;0.53;;
13408;SDS011;6775;49.574;11.170;2023-05-10T11:10:36;0.73;;;0.70;;
13408;SDS011;6775;49.574;11.170;2023-05-10T11:13:05;1.23;;;0.80;;
13408;SDS011;6775;49.574;11.170;2023-05-10T11:15:34;0.60;;;0.60;;
13408;SDS011;6775;49.574;11.170;2023-05-10T11:18:20;0.70;;;0.70;;
13408;SDS011;6775;49.574;11.170;2023-05-10T11:20:51;0.70;;;0.70;;
13408;SDS011;6775;49.574;11.170;2023-05-10T11:23:22;0.57;;;0.57;;
13408;SDS011;6775;49.574;11.170;2023-05-10T11:25:50;0.70;;;0.63;;
13408;SDS011;6775;49.574;11.170;2023-05-10T11:28:18;0.70;;;0.60;;
13408;SDS011;6775;49.574;11.170;2023-05-10T11:30:46;1.53;;;0.70;;
13408;SDS011;6775;49.574;11.170;2023-05-10T11:33:15;1.07;;;0.60;;
13408;SDS011;6775;49.574;11.170;2023-05-10T11:35:45;0.60;;;0.60;;
13408;SDS011;6775;49.574;11.170;2023-05-10T11:38:13;0.60;;;0.60;;
13408;SDS011;6775;49.574;11.170;2023-05-10T11:40:41;0.47;;;0.47;;
13408;SDS011;6775;49.574;11.170;2023-05-10T11:43:09;1.27;;;0.67;;
13408;SDS011;6775;49.574;11.170;2023-05-10T11:45:39;0.93;;;0.73;;
13408;SDS011;6775;49.574;11.170;2023-05-10T11:48:08;0.70;;;0.70;;
13408;SDS011;6775;49.574;11.170;2023-05-10T11:50:36;0.60;;;0.60;;
13408;SDS011;6775;49.574;11.170;2023-05-10T11:53:05;0.80;;;0.80;;
13408;SDS011;6775;49.574;11.170;2023-05-10T11:55:33;0.60;;;0.60;;
13408;SDS011;6775;49.574;11.170;2023-05-10T11:58:02;1.17;;;1.07;;
13408;SDS011;6775;49.574;11.170;2023-05-10T12:00:30;1.17;;;1.00;;
13408;SDS011;6775;49.574;11.170;2023-05-10T12:02:59;0.80;;;0.80;;
13408;SDS011;6775;49.574;11.170;2023-05-10T12:05:28;0.73;;;0.73;;
13408;SDS011;6775;49.574;11.170;2023-05-10T12:08:11;1.37;;;0.83;;
13408;SDS011;6775;49.574;11.170;2023-05-10T12:10:40;1.37;;;1.10;;
13408;SDS011;6775;49.574;11.170;2023-05-10T12:13:11;0.70;;;0.70;;
13408;SDS011;6775;49.574;11.170;2023-05-10T12:15:41;0.90;;;0.90;;
13408;SDS011;6775;49.574;11.170;2023-05-10T12:18:09;1.00;;;1.00;;
13408;SDS011;6775;49.574;11.170;2023-05-10T12:20:38;0.97;;;0.93;;
13408;SDS011;6775;49.574;11.170;2023-05-10T12:23:07;0.80;;;0.80;;
13408;SDS011;6775;49.574;11.170;2023-05-10T12:25:37;1.37;;;1.00;;
13408;SDS011;6775;49.574;11.170;2023-05-10T12:28:06;2.00;;;1.40;;
13408;SDS011;6775;49.574;11.170;2023-05-10T12:30:35;1.50;;;1.30;;
13408;SDS011;6775;49.574;11.170;2023-05-10T12:33:07;0.90;;;0.90;;
13408;SDS011;6775;49.574;11.170;2023-05-10T12:35:43;1.00;;;1.00;;
13408;SDS011;6775;49.574;11.170;2023-05-10T12:38:25;0.80;;;0.80;;
13408;SDS011;6775;49.574;11.170;2023-05-10T12:40:56;0.70;;;0.70;;
13408;SDS011;6775;49.574;11.170;2023-05-10T12:43:25;0.80;;;0.80;;
13408;SDS011;6775;49.574;11.170;2023-05-10T12:45:52;0.70;;;0.70;;
13408;SDS011;6775;49.574;11.170;2023-05-10T12:48:20;0.90;;;0.90;;
13408;SDS011;6775;49.574;11.170;2023-05-10T12:50:48;1.53;;;1.00;;
13408;SDS011;6775;49.574;11.170;2023-05-10T12:53:16;0.80;;;0.80;;
13408;SDS011;6775;49.574;11.170;2023-05-10T12:55:44;0.97;;;0.87;;
13408;SDS011;6775;49.574;11.170;2023-05-10T12:58:13;0.60;;;0.60;;
13408;SDS011;6775;49.574;11.170;2023-05-10T13:00:59;1.17;;;0.87;;
13408;SDS011;6775;49.574;11.170;2023-05-10T13:03:28;0.60;;;0.60;;
13408;SDS011;6775;49.574;11.170;2023-05-10T13:05:56;1.27;;;0.80;;
13408;SDS011;6775;49.574;11.170;2023-05-10T13:08:24;1.67;;;1.40;;
13408;SDS011;6775;49.574;11.170;2023-05-10T13:10:52;0.70;;;0.70;;
13408;SDS011;6775;49.574;11.170;2023-05-10T13:13:21;1.20;;;1.10;;
13408;SDS011;6775;49.574;11.170;2023-05-10T13:15:49;1.37;;;1.07;;
13408;SDS011;6775;49.574;11.170;2023-05-10T13:18:16;1.57;;;1.03;;
13408;SDS011;6775;49.574;11.170;2023-05-10T13:20:44;1.00;;;0.90;;
13408;SDS011;6775;49.574;11.170;2023-05-10T13:23:12;0.80;;;0.80;;
13408;SDS011;6775;49.574;11.170;2023-05-10T13:25:40;1.50;;;0.90;;
13408;SDS011;6775;49.574;11.170;2023-05-10T13:28:08;0.93;;;0.93;;
13408;SDS011;6775;49.574;11.170;2023-05-10T13:30:37;0.77;;;0.77;;
13408;SDS011;6775;49.574;11.170;2023-05-10T13:33:05;2.60;;;1.80;;
13408;SDS011;6775;49.574;11.170;2023-05-10T13:35:32;1.30;;;1.20;;
13408;SDS011;6775;49.574;11.170;2023-05-10T13:38:00;1.40;;;1.30;;
13408;SDS011;6775;49.574;11.170;2023-05-10T13:40:28;1.20;;;1.10;;
13408;SDS011;6775;49.574;11.170;2023-05-10T13:42:56;2.37;;;1.30;;
13408;SDS011;6775;49.574;11.170;2023-05-10T13:45:23;1.00;;;1.00;;
13408;SDS011;6775;49.574;11.170;2023-05-10T13:47:53;2.43;;;1.30;;
13408;SDS011;6775;49.574;11.170;2023-05-10T13:50:20;1.27;;;1.13;;
13408;SDS011;6775;49.574;11.170;2023-05-10T13:52:48;1.57;;;0.90;;
13408;SDS011;6775;49.574;11.170;2023-05-10T13:55:16;1.23;;;1.00;;
13408;SDS011;6775;49.574;11.170;2023-05-10T13:57:44;1.17;;;0.90;;
13408;SDS011;6775;49.574;11.170;2023-05-10T14:00:12;0.80;;;0.80;;
13408;SDS011;6775;49.574;11.170;2023-05-10T14:02:41;1.00;;;0.77;;
13408;SDS011;6775;49.574;11.170;2023-05-10T14:05:10;1.93;;;0.70;;
13408;SDS011;6775;49.574;11.170;2023-05-10T14:07:38;0.70;;;0.70;;
13408;SDS011;6775;49.574;11.170;2023-05-10T14:10:06;0.90;;;0.70;;
13408;SDS011;6775;49.574;11.170;2023-05-10T14:12:34;0.60;;;0.60;;
13408;SDS011;6775;49.574;11.170;2023-05-10T14:15:02;0.60;;;0.60;;
13408;SDS011;6775;49.574;11.170;2023-05-10T14:17:32;0.70;;;0.70;;
13408;SDS011;6775;49.574;11.170;2023-05-10T14:20:00;0.50;;;0.50;;
13408;SDS011;6775;49.574;11.170;2023-05-10T14:22:29;0.83;;;0.80;;
13408;SDS011;6775;49.574;11.170;2023-05-10T14:24:57;0.60;;;0.60;;
13408;SDS011;6775;49.574;11.170;2023-05-10T14:27:25;0.70;;;0.70;;
13408;SDS011;6775;49.574;11.170;2023-05-10T14:29:53;0.70;;;0.70;;
13408;SDS011;6775;49.574;11.170;2023-05-10T14:32:21;0.50;;;0.50;;
13408;SDS011;6775;49.574;11.170;2023-05-10T14:34:49;0.80;;;0.67;;
13408;SDS011;6775;49.574;11.170;2023-05-10T14:37:16;0.70;;;0.70;;
13408;SDS011;6775;49.574;11.170;2023-05-10T14:39:45;0.90;;;0.80;;
13408;SDS011;6775;49.574;11.170;2023-05-10T14:42:13;1.27;;;0.90;;
13408;SDS011;6775;49.574;11.170;2023-05-10T14:44:41;1.07;;;0.90;;
13408;SDS011;6775;49.574;11.170;2023-05-10T14:47:09;1.30;;;1.00;;
13408;SDS011;6775;49.574;11.170;2023-05-10T14:49:37;1.13;;;1.03;;
13408;SDS011;6775;49.574;11.170;2023-05-10T14:52:05;1.20;;;1.00;;
13408;SDS011;6775;49.574;11.170;2023-05-10T14:54:33;0.80;;;0.80;;
13408;SDS011;6775;49.574;11.170;2023-05-10T14:57:02;1.23;;;0.90;;
13408;SDS011;6775;49.574;11.170;2023-05-10T14:59:30;2.30;;;0.90;;
13408;SDS011;6775;49.574;11.170;2023-05-10T15:01:59;0.73;;;0.73;;
13408;SDS011;6775;49.574;11.170;2023-05-10T15:04:27;1.00;;;1.00;;